createdAt,value
2023-07-18T00:07:44.101Z,17.60
2023-07-18T00:10:12.289Z,17.50
2023-07-18T00:12:40.960Z,17.50
2023-07-18T00:15:10.927Z,17.40
2023-07-18T00:17:38.759Z,17.50
2023-07-18T00:20:09.974Z,17.60
2023-07-18T00:22:38.042Z,17.60
2023-07-18T00:25:06.025Z,17.70
2023-07-18T00:27:33.210Z,17.70
2023-07-18T00:30:00.176Z,17.70
2023-07-18T00:32:27.191Z,17.70
2023-07-18T00:34:57.696Z,17.60
2023-07-18T00:37:24.899Z,17.60
2023-07-18T00:39:54.166Z,17.60
2023-07-18T00:42:23.808Z,17.60
2023-07-18T00:44:52.062Z,17.60
2023-07-18T00:47:19.662Z,17.60
2023-07-18T00:49:51.975Z,17.60
2023-07-18T00:52:19.205Z,17.50
2023-07-18T00:54:46.317Z,17.40
2023-07-18T00:57:13.723Z,17.40
2023-07-18T00:59:41.019Z,17.40
2023-07-18T01:02:08.334Z,17.50
2023-07-18T01:04:35.499Z,17.50
2023-07-18T01:07:02.880Z,17.60
2023-07-18T01:09:30.124Z,17.60
2023-07-18T01:11:57.107Z,17.50
2023-07-18T01:14:29.432Z,17.40
2023-07-18T01:16:56.667Z,17.30
2023-07-18T01:19:24.575Z,17.20
2023-07-18T01:21:51.777Z,17.20
2023-07-18T01:24:19.475Z,17.10
2023-07-18T01:26:46.625Z,17.10
2023-07-18T01:29:13.591Z,17.10
2023-07-18T01:31:40.631Z,17.10
2023-07-18T01:34:07.755Z,17.10
2023-07-18T01:36:34.730Z,17.20
2023-07-18T01:39:01.811Z,17.20
2023-07-18T01:41:28.848Z,17.20
2023-07-18T01:43:56.143Z,17.10
2023-07-18T01:46:24.363Z,17.10
2023-07-18T01:48:51.537Z,17.10
2023-07-18T01:51:18.786Z,17.20
2023-07-18T01:53:49.233Z,17.20
2023-07-18T01:56:17.973Z,17.20
2023-07-18T01:58:45.689Z,17.20
2023-07-18T02:01:12.747Z,17.30
2023-07-18T02:03:39.816Z,17.30
2023-07-18T02:06:07.019Z,17.20
2023-07-18T02:08:33.952Z,17.20
2023-07-18T02:11:01.044Z,17.20
2023-07-18T02:13:28.082Z,17.10
2023-07-18T02:15:54.999Z,17.10
2023-07-18T02:18:22.020Z,17.10
2023-07-18T02:20:48.998Z,17.10
2023-07-18T02:23:15.960Z,17.10
2023-07-18T02:25:42.967Z,17.20
2023-07-18T02:28:11.452Z,17.20
2023-07-18T02:30:39.547Z,17.20
2023-07-18T02:33:08.459Z,17.30
2023-07-18T02:35:35.561Z,17.40
2023-07-18T02:38:02.505Z,17.70
2023-07-18T02:40:29.454Z,17.80
2023-07-18T02:42:56.497Z,17.90
2023-07-18T02:45:23.423Z,17.90
2023-07-18T02:47:51.584Z,17.90
2023-07-18T02:50:18.830Z,17.90
2023-07-18T02:52:45.827Z,17.90
2023-07-18T02:55:13.622Z,18.00
2023-07-18T02:57:40.916Z,18.10
2023-07-18T03:00:19.619Z,18.00
2023-07-18T03:02:49.447Z,18.20
2023-07-18T03:05:20.131Z,18.20
2023-07-18T03:07:50.354Z,18.20
2023-07-18T03:10:17.588Z,18.10
2023-07-18T03:12:44.566Z,18.10
2023-07-18T03:15:11.830Z,18.30
2023-07-18T03:17:39.300Z,18.20
2023-07-18T03:20:18.621Z,18.30
2023-07-18T03:22:46.882Z,18.30
2023-07-18T03:25:14.316Z,18.40
2023-07-18T03:27:41.360Z,18.40
2023-07-18T03:30:11.787Z,18.30
2023-07-18T03:32:39.752Z,18.40
2023-07-18T03:35:08.483Z,18.50
2023-07-18T03:37:35.473Z,18.50
2023-07-18T03:40:05.638Z,18.50
2023-07-18T03:42:32.753Z,18.70
2023-07-18T03:44:59.655Z,18.70
2023-07-18T03:47:26.910Z,18.80
2023-07-18T03:49:53.887Z,18.80
2023-07-18T03:52:21.014Z,18.80
2023-07-18T03:54:47.968Z,19.00
2023-07-18T03:57:15.458Z,19.00
2023-07-18T03:59:42.507Z,18.90
2023-07-18T04:02:09.543Z,18.80
2023-07-18T04:04:36.589Z,18.70
2023-07-18T04:07:03.840Z,18.70
2023-07-18T04:09:32.151Z,18.70
2023-07-18T04:11:59.165Z,18.70
2023-07-18T04:14:26.096Z,18.60
2023-07-18T04:16:53.484Z,18.60
2023-07-18T04:19:20.732Z,18.70
2023-07-18T04:21:47.768Z,18.50
2023-07-18T04:24:14.764Z,18.40
2023-07-18T04:26:42.489Z,18.30
2023-07-18T04:29:10.990Z,18.20
2023-07-18T04:31:37.999Z,18.20
2023-07-18T04:34:05.056Z,17.90
2023-07-18T04:36:35.023Z,17.90
2023-07-18T04:39:02.055Z,17.80
2023-07-18T04:41:34.970Z,17.80
2023-07-18T04:44:08.606Z,17.70
2023-07-18T04:46:35.682Z,17.70
2023-07-18T04:49:02.826Z,17.60
2023-07-18T04:51:29.750Z,17.60
2023-07-18T04:53:57.348Z,17.50
2023-07-18T04:56:24.327Z,17.40
2023-07-18T04:58:51.787Z,17.30
2023-07-18T05:01:19.132Z,17.30
2023-07-18T05:03:57.491Z,17.30
2023-07-18T05:06:26.409Z,17.30
2023-07-18T05:08:55.018Z,17.30
2023-07-18T05:11:22.635Z,17.30
2023-07-18T05:13:49.762Z,17.40
2023-07-18T05:16:16.780Z,17.40
2023-07-18T05:18:43.791Z,17.40
2023-07-18T05:21:10.741Z,17.40
2023-07-18T05:23:37.800Z,17.50
2023-07-18T05:26:05.558Z,17.60
2023-07-18T05:28:32.554Z,17.70
2023-07-18T05:31:11.010Z,17.80
2023-07-18T05:33:38.198Z,17.80
2023-07-18T05:36:05.506Z,18.00
2023-07-18T05:38:32.605Z,18.10
2023-07-18T05:40:59.679Z,18.20
2023-07-18T05:43:26.602Z,18.30
2023-07-18T05:45:53.584Z,18.40
2023-07-18T05:48:20.618Z,18.50
2023-07-18T05:50:47.654Z,18.60
2023-07-18T05:53:14.557Z,18.80
2023-07-18T05:55:41.502Z,18.80
2023-07-18T05:58:08.595Z,18.90
2023-07-18T06:00:35.594Z,18.90
2023-07-18T06:03:02.668Z,18.90
2023-07-18T06:05:29.643Z,18.80
2023-07-18T06:07:56.702Z,18.80
2023-07-18T06:10:23.667Z,18.90
2023-07-18T06:12:50.880Z,18.80
2023-07-18T06:15:17.969Z,18.70
2023-07-18T06:17:46.962Z,18.80
2023-07-18T06:20:14.574Z,18.70
2023-07-18T06:22:43.302Z,18.70
2023-07-18T06:25:11.433Z,18.70
2023-07-18T06:27:38.819Z,18.70
2023-07-18T06:30:06.571Z,18.60
2023-07-18T06:32:33.598Z,18.70
2023-07-18T06:35:09.450Z,18.70
2023-07-18T06:37:47.808Z,18.70
2023-07-18T06:40:15.437Z,18.80
2023-07-18T06:42:44.335Z,18.80
2023-07-18T06:45:11.457Z,18.90
2023-07-18T06:47:38.552Z,19.10
2023-07-18T06:50:06.159Z,19.10
2023-07-18T06:52:36.714Z,19.10
2023-07-18T06:55:11.010Z,19.00
2023-07-18T06:57:39.708Z,19.10
2023-07-18T07:00:08.397Z,19.10
2023-07-18T07:02:35.424Z,19.20
2023-07-18T07:05:03.496Z,19.30
2023-07-18T07:07:30.714Z,19.50
2023-07-18T07:09:57.776Z,19.50
2023-07-18T07:12:35.423Z,19.60
2023-07-18T07:15:04.809Z,19.70
2023-07-18T07:17:32.797Z,19.70
2023-07-18T07:19:59.804Z,19.80
2023-07-18T07:22:27.200Z,19.80
2023-07-18T07:24:55.789Z,19.80
2023-07-18T07:27:22.757Z,20.00
2023-07-18T07:29:50.527Z,20.00
2023-07-18T07:32:17.637Z,20.00
2023-07-18T07:34:47.681Z,20.20
2023-07-18T07:37:15.518Z,20.20
2023-07-18T07:39:43.349Z,20.20
2023-07-18T07:42:10.647Z,20.30
2023-07-18T07:44:37.813Z,20.40
2023-07-18T07:47:05.122Z,20.40
2023-07-18T07:49:32.042Z,20.30
2023-07-18T07:51:59.163Z,20.50
2023-07-18T07:54:26.160Z,20.50
2023-07-18T07:56:53.318Z,20.50
2023-07-18T07:59:21.909Z,20.70
2023-07-18T08:14:11.764Z,21.30
2023-07-18T08:16:39.393Z,21.50
2023-07-18T08:19:06.858Z,21.40
2023-07-18T08:21:36.466Z,21.30
2023-07-18T08:24:03.579Z,21.40
2023-07-18T08:26:30.585Z,21.50
2023-07-18T08:28:59.287Z,21.90
2023-07-18T08:31:27.200Z,22.00
2023-07-18T08:33:54.421Z,22.10
2023-07-18T08:36:21.664Z,22.20
2023-07-18T08:38:51.618Z,22.10
2023-07-18T08:41:21.418Z,22.00
2023-07-18T08:43:50.915Z,22.10
2023-07-18T08:46:20.581Z,22.00
2023-07-18T08:48:49.850Z,22.10
2023-07-18T08:51:17.490Z,22.00
2023-07-18T08:53:45.033Z,22.10
2023-07-18T08:56:12.139Z,22.30
2023-07-18T08:58:41.139Z,22.40
2023-07-18T09:01:09.604Z,22.50
2023-07-18T09:21:19.381Z,23.20
2023-07-18T09:23:47.242Z,23.40
2023-07-18T09:26:16.061Z,23.40
2023-07-18T09:33:49.241Z,22.60
2023-07-18T09:36:20.484Z,20.80
2023-07-18T09:38:48.543Z,20.40
2023-07-18T09:41:23.412Z,19.30
2023-07-18T09:43:57.933Z,18.40
2023-07-18T09:46:33.817Z,17.90
2023-07-18T09:49:03.846Z,17.80
2023-07-18T09:51:34.516Z,17.60
2023-07-18T09:54:05.828Z,17.60
2023-07-18T09:56:36.872Z,17.50
2023-07-18T09:59:06.455Z,17.50
2023-07-18T10:01:33.947Z,17.60
2023-07-18T10:04:01.981Z,17.80
2023-07-18T10:11:24.547Z,18.20
2023-07-18T10:14:06.645Z,18.30
2023-07-18T10:16:36.723Z,18.40
2023-07-18T10:19:20.488Z,18.60
2023-07-18T10:24:22.738Z,18.90
2023-07-18T10:26:54.166Z,19.20
2023-07-18T10:29:21.615Z,19.40
2023-07-18T10:31:48.893Z,19.80
2023-07-18T10:36:57.934Z,20.80
2023-07-18T10:57:16.797Z,21.70
2023-07-18T10:59:46.133Z,22.00
2023-07-18T11:17:15.784Z,21.00
2023-07-18T11:19:42.902Z,20.80
2023-07-18T11:32:39.491Z,20.90
2023-07-18T11:50:14.606Z,21.90
2023-07-18T11:52:46.667Z,21.60
2023-07-18T13:19:18.002Z,21.80
2023-07-18T13:26:40.600Z,22.30
2023-07-18T13:29:07.744Z,22.40
2023-07-18T13:31:35.520Z,22.40
2023-07-18T13:34:04.550Z,22.20
2023-07-18T13:36:33.366Z,22.50
2023-07-18T13:39:00.740Z,22.70
2023-07-18T13:41:27.928Z,22.10
2023-07-18T13:43:55.377Z,22.00
2023-07-18T13:48:50.810Z,22.10
2023-07-18T13:51:17.974Z,21.50
2023-07-18T13:53:45.972Z,22.30
2023-07-18T13:56:13.149Z,22.40
2023-07-18T14:06:06.216Z,22.30
2023-07-18T14:11:01.384Z,21.90
2023-07-18T14:13:28.367Z,21.90
2023-07-18T14:18:26.142Z,22.00
2023-07-18T14:25:49.326Z,22.30
2023-07-18T14:30:46.071Z,22.30
2023-07-18T14:35:43.937Z,22.10
2023-07-18T14:38:11.698Z,22.20
2023-07-18T16:24:47.563Z,21.60
2023-07-18T16:29:43.008Z,21.20
2023-07-18T16:39:33.287Z,21.00
2023-07-18T16:42:09.681Z,21.60
2023-07-18T16:47:16.800Z,21.50
2023-07-18T16:49:46.451Z,21.40
2023-07-18T16:52:13.609Z,21.10
2023-07-18T16:54:40.910Z,21.30
2023-07-18T19:17:52.717Z,17.80
2023-07-18T19:27:47.579Z,17.50
2023-07-18T19:30:15.002Z,17.30
2023-07-18T19:32:42.481Z,17.30
2023-07-18T19:45:02.616Z,17.20
2023-07-18T19:47:32.975Z,17.10
2023-07-18T19:50:00.048Z,17.20
2023-07-18T19:52:27.112Z,17.00
2023-07-18T19:54:54.090Z,17.10
2023-07-18T19:57:21.023Z,17.20
2023-07-18T19:59:48.690Z,17.30
2023-07-18T20:02:15.956Z,17.10
2023-07-18T20:04:43.717Z,17.20
2023-07-18T20:31:56.133Z,16.40
2023-07-18T20:34:23.183Z,17.00
2023-07-18T20:36:50.176Z,17.10
2023-07-18T20:39:17.170Z,17.10
2023-07-18T20:41:44.207Z,17.00
2023-07-18T20:46:40.261Z,17.10
2023-07-18T20:49:07.962Z,17.10
2023-07-18T21:46:15.850Z,16.50
2023-07-18T21:48:43.974Z,16.60
2023-07-18T21:56:05.930Z,16.40
2023-07-18T22:01:00.223Z,16.30
2023-07-18T22:03:28.046Z,16.10
2023-07-18T22:05:55.322Z,16.10
2023-07-18T22:08:22.509Z,16.00
2023-07-18T22:10:49.517Z,15.90
2023-07-18T22:13:16.829Z,16.00
2023-07-18T22:15:43.922Z,15.90
2023-07-18T22:18:25.803Z,16.00
2023-07-18T22:20:54.755Z,16.00
2023-07-18T22:23:21.823Z,15.80
2023-07-18T22:28:36.392Z,15.60
2023-07-18T22:31:03.737Z,15.60
2023-07-18T22:38:25.717Z,15.60
2023-07-18T22:40:52.690Z,15.60
2023-07-18T22:43:20.111Z,15.60
2023-07-18T22:45:49.514Z,15.50
2023-07-18T22:58:06.414Z,15.40
2023-07-18T23:03:00.976Z,15.20
2023-07-18T23:05:28.066Z,15.30
2023-07-18T23:07:55.052Z,15.30
2023-07-18T23:10:22.389Z,15.10
2023-07-18T23:17:44.142Z,14.90
2023-07-18T23:25:06.617Z,14.90
2023-07-18T23:27:33.713Z,14.90
2023-07-18T23:30:00.757Z,14.90
2023-07-18T23:32:27.814Z,15.00
2023-07-18T23:34:54.852Z,15.00
2023-07-18T23:37:21.772Z,15.00
2023-07-18T23:39:48.721Z,15.00
2023-07-18T23:44:43.523Z,14.90
2023-07-18T23:47:10.514Z,14.90
2023-07-18T23:49:37.581Z,15.10
2023-07-18T23:52:04.986Z,15.10
2023-07-18T23:54:31.980Z,15.00
2023-07-18T23:56:58.990Z,14.90
2023-07-18T23:59:25.948Z,14.80
